createdAt,value
2019-03-15T00:01:12.148Z,98207.38
2019-03-15T00:03:38.866Z,98214.23
2019-03-15T00:06:05.912Z,98223.66
2019-03-15T00:08:32.660Z,98227.84
2019-03-15T00:10:59.390Z,98237.88
2019-03-15T00:13:26.128Z,98234.72
2019-03-15T00:15:52.858Z,98233.88
2019-03-15T00:18:19.586Z,98243.09
2019-03-15T00:20:46.306Z,98250.72
2019-03-15T00:23:13.024Z,98253.03
2019-03-15T00:25:43.034Z,98257.98
2019-03-15T00:28:09.758Z,98263.55
2019-03-15T00:30:36.430Z,98263.55
2019-03-15T00:33:03.137Z,98270.06
2019-03-15T00:35:29.844Z,98263.48
2019-03-15T00:37:56.676Z,98265.63
2019-03-15T00:40:23.496Z,98265.63
2019-03-15T00:42:50.244Z,98268.77
2019-03-15T00:45:16.959Z,98262.75
2019-03-15T00:47:43.656Z,98266.92
2019-03-15T00:50:10.928Z,98273.20
2019-03-15T00:52:37.639Z,98273.20
2019-03-15T00:55:04.693Z,98261.62
2019-03-15T00:57:31.422Z,98264.34
2019-03-15T00:59:58.144Z,98264.34
2019-03-15T01:02:26.056Z,98255.63
2019-03-15T01:04:52.769Z,98261.67
2019-03-15T01:07:19.477Z,98263.81
2019-03-15T01:09:46.698Z,98270.66
2019-03-15T01:12:13.425Z,98267.02
2019-03-15T01:14:40.176Z,98271.69
2019-03-15T01:17:06.876Z,98259.42
2019-03-15T01:19:33.611Z,98259.42
2019-03-15T01:22:00.314Z,98264.97
2019-03-15T01:24:27.034Z,98271.55
2019-03-15T01:26:53.745Z,98279.70
2019-03-15T01:29:20.491Z,98274.70
2019-03-15T01:31:47.183Z,98269.17
2019-03-15T01:34:14.896Z,98259.72
2019-03-15T01:36:41.946Z,98259.70
2019-03-15T01:39:08.696Z,98264.73
2019-03-15T01:41:35.351Z,98263.15
2019-03-15T01:44:02.058Z,98258.88
2019-03-15T01:46:30.195Z,98253.09
2019-03-15T01:48:56.883Z,98259.19
2019-03-15T01:51:23.573Z,98254.74
2019-03-15T01:53:50.266Z,98256.03
2019-03-15T01:56:16.992Z,98259.73
2019-03-15T01:58:43.726Z,98252.69
2019-03-15T02:01:10.902Z,98256.11
2019-03-15T02:03:37.622Z,98253.70
2019-03-15T02:06:07.083Z,98253.45
2019-03-15T02:08:33.779Z,98251.06
2019-03-15T02:11:00.518Z,98246.09
2019-03-15T02:13:27.572Z,98244.78
2019-03-15T02:15:54.290Z,98251.89
2019-03-15T02:18:20.990Z,98245.89
2019-03-15T02:20:48.099Z,98242.53
2019-03-15T02:23:14.794Z,98242.53
2019-03-15T02:25:41.537Z,98245.16
2019-03-15T02:28:08.247Z,98241.98
2019-03-15T02:30:35.248Z,98245.67
2019-03-15T02:33:01.936Z,98238.34
2019-03-15T02:35:29.049Z,98233.85
2019-03-15T02:37:55.795Z,98230.47
2019-03-15T02:40:22.552Z,98233.91
2019-03-15T02:42:49.351Z,98242.87
2019-03-15T02:45:16.101Z,98239.72
2019-03-15T02:47:42.841Z,98227.91
2019-03-15T02:50:09.575Z,98235.00
2019-03-15T02:52:36.272Z,98227.91
2019-03-15T02:55:03.324Z,98233.17
2019-03-15T02:57:30.429Z,98233.45
2019-03-15T02:59:57.491Z,98226.09
2019-03-15T03:02:24.204Z,98230.82
2019-03-15T03:04:50.919Z,98233.43
2019-03-15T03:07:21.382Z,98236.35
2019-03-15T03:09:48.111Z,98238.98
2019-03-15T03:12:14.836Z,98237.67
2019-03-15T03:14:41.549Z,98234.52
2019-03-15T03:17:08.395Z,98230.61
2019-03-15T03:19:35.139Z,98230.88
2019-03-15T03:22:01.872Z,98231.14
2019-03-15T03:24:28.887Z,98242.46
2019-03-15T03:26:55.614Z,98234.05
2019-03-15T03:29:22.321Z,98221.16
2019-03-15T03:31:49.039Z,98222.23
2019-03-15T03:34:15.847Z,98224.84
2019-03-15T03:36:42.592Z,98227.48
2019-03-15T03:39:09.309Z,98226.45
2019-03-15T03:41:36.030Z,98232.73
2019-03-15T03:44:02.805Z,98237.23
2019-03-15T03:46:29.546Z,98245.66
2019-03-15T03:48:56.224Z,98245.91
2019-03-15T03:51:22.953Z,98250.38
2019-03-15T03:53:49.686Z,98240.64
2019-03-15T03:56:17.447Z,98238.55
2019-03-15T03:58:46.227Z,98232.22
2019-03-15T04:01:13.260Z,98233.55
2019-03-15T04:03:40.032Z,98236.20
2019-03-15T04:06:06.779Z,98239.61
2019-03-15T04:08:33.521Z,98242.25
2019-03-15T04:11:03.945Z,98247.75
2019-03-15T04:13:31.016Z,98241.98
2019-03-15T04:15:57.727Z,98236.98
2019-03-15T04:18:24.911Z,98235.95
2019-03-15T04:20:51.624Z,98233.34
2019-03-15T04:23:18.342Z,98233.03
2019-03-15T04:25:45.068Z,98233.59
2019-03-15T04:28:12.118Z,98246.98
2019-03-15T04:30:38.828Z,98242.53
2019-03-15T04:33:05.513Z,98237.80
2019-03-15T04:35:32.233Z,98232.00
2019-03-15T04:37:58.963Z,98232.55
2019-03-15T04:40:25.659Z,98228.84
2019-03-15T04:42:52.479Z,98218.35
2019-03-15T04:45:19.275Z,98227.55
2019-03-15T04:47:48.713Z,98225.17
2019-03-15T04:50:15.430Z,98230.18
2019-03-15T04:52:42.176Z,98222.28
2019-03-15T04:55:08.861Z,98226.23
2019-03-15T04:57:35.610Z,98218.33
2019-03-15T05:00:03.376Z,97630.98
2019-03-15T05:02:30.105Z,98213.06
2019-03-15T05:05:00.103Z,98214.66
2019-03-15T05:07:25.803Z,98214.12
2019-03-15T05:09:52.527Z,98209.39
2019-03-15T05:12:19.281Z,98207.03
2019-03-15T05:14:46.120Z,98207.55
2019-03-15T05:17:12.847Z,98205.19
2019-03-15T05:19:39.647Z,98216.52
2019-03-15T05:22:06.279Z,98204.15
2019-03-15T05:24:37.799Z,98200.18
2019-03-15T05:27:04.489Z,98195.98
2019-03-15T05:29:31.173Z,98190.73
2019-03-15T05:31:57.913Z,98189.14
2019-03-15T05:34:24.615Z,98191.77
2019-03-15T05:36:51.360Z,98193.61
2019-03-15T05:39:18.070Z,98197.03
2019-03-15T05:41:44.904Z,98181.27
2019-03-15T05:44:11.609Z,98184.67
2019-03-15T05:46:38.663Z,98188.38
2019-03-15T05:49:05.361Z,98174.95
2019-03-15T05:51:32.113Z,98173.64
2019-03-15T05:53:58.797Z,98171.26
2019-03-15T05:56:28.151Z,98172.56
2019-03-15T05:58:54.715Z,98177.06
2019-03-15T06:01:21.437Z,98176.53
2019-03-15T06:03:49.378Z,98167.59
2019-03-15T06:06:16.353Z,98179.43
2019-03-15T06:08:43.097Z,98173.88
2019-03-15T06:11:10.165Z,98174.68
2019-03-15T06:13:37.203Z,98168.89
2019-03-15T06:16:04.134Z,98168.38
2019-03-15T06:18:30.976Z,98155.74
2019-03-15T06:20:57.689Z,98154.70
2019-03-15T06:23:24.553Z,98162.32
2019-03-15T06:25:51.281Z,98154.16
2019-03-15T06:28:18.147Z,98153.38
2019-03-15T06:30:45.193Z,98153.13
2019-03-15T06:33:11.985Z,98153.65
2019-03-15T06:35:38.747Z,98155.48
2019-03-15T06:38:06.712Z,98147.59
2019-03-15T06:40:33.439Z,98151.02
2019-03-15T06:43:00.213Z,98157.05
2019-03-15T06:45:27.104Z,98160.47
2019-03-15T06:47:53.848Z,98148.91
2019-03-15T06:50:20.541Z,98144.97
2019-03-15T06:52:47.306Z,98177.30
2019-03-15T06:55:14.071Z,98145.77
2019-03-15T06:57:41.003Z,98143.66
2019-03-15T07:00:07.938Z,98136.28
2019-03-15T07:02:34.866Z,98135.22
2019-03-15T07:05:01.872Z,98133.91
2019-03-15T07:07:28.654Z,98141.77
2019-03-15T07:09:55.423Z,98135.22
2019-03-15T07:12:22.234Z,98140.73
2019-03-15T07:14:49.486Z,98137.33
2019-03-15T07:17:16.314Z,98132.84
2019-03-15T07:19:43.159Z,98126.78
2019-03-15T07:22:09.978Z,98131.00
2019-03-15T07:24:36.747Z,98123.35
2019-03-15T07:27:12.935Z,98133.08
2019-03-15T07:29:32.433Z,98123.91
2019-03-15T07:31:59.615Z,98126.78
2019-03-15T07:34:26.465Z,98119.95
2019-03-15T07:36:55.380Z,98125.46
2019-03-15T07:39:21.960Z,98119.68
2019-03-15T07:41:48.860Z,98133.08
2019-03-15T07:44:15.763Z,98109.92
2019-03-15T07:46:43.494Z,98119.13
2019-03-15T07:49:10.370Z,98117.29
2019-03-15T07:51:37.304Z,98108.36
2019-03-15T07:54:04.067Z,98114.38
2019-03-15T07:56:30.811Z,98102.83
2019-03-15T07:58:57.973Z,98108.88
2019-03-15T08:01:25.019Z,98105.97
2019-03-15T08:03:53.654Z,98103.06
2019-03-15T08:06:33.835Z,98098.31
2019-03-15T08:08:49.135Z,98102.81
2019-03-15T08:11:16.004Z,98098.87
2019-03-15T08:13:43.944Z,98089.89
2019-03-15T08:16:10.678Z,98093.05
2019-03-15T08:18:37.598Z,98092.77
2019-03-15T08:21:04.440Z,98092.23
2019-03-15T08:23:31.348Z,98092.98
2019-03-15T08:25:58.239Z,98090.07
2019-03-15T08:28:25.602Z,98079.24
2019-03-15T08:30:52.510Z,98092.12
2019-03-15T08:33:19.477Z,98091.08
2019-03-15T08:35:46.414Z,98096.07
2019-03-15T08:38:13.214Z,98126.87
2019-03-15T08:40:42.864Z,98096.00
2019-03-15T08:43:09.638Z,98086.55
2019-03-15T08:45:36.415Z,98125.24
2019-03-15T08:48:03.265Z,98097.58
2019-03-15T08:50:30.658Z,98093.05
2019-03-15T08:52:57.432Z,98089.59
2019-03-15T08:55:24.381Z,98101.95
2019-03-15T08:57:55.117Z,98091.42
2019-03-15T09:00:22.245Z,98118.51
2019-03-15T09:02:48.992Z,98132.98
2019-03-15T09:05:15.933Z,98098.42
2019-03-15T09:07:46.484Z,98125.30
2019-03-15T09:10:22.813Z,98134.52
2019-03-15T09:12:42.888Z,98098.65
2019-03-15T09:15:17.060Z,98110.80
2019-03-15T09:17:46.184Z,98150.06
2019-03-15T09:20:15.910Z,98114.99
2019-03-15T09:22:43.008Z,98122.86
2019-03-15T09:25:19.127Z,98101.41
2019-03-15T09:27:45.030Z,98105.61
2019-03-15T09:30:22.503Z,98105.31
2019-03-15T09:32:42.227Z,98108.46
2019-03-15T09:35:11.182Z,98101.05
2019-03-15T09:37:38.226Z,98101.52
2019-03-15T09:40:06.582Z,98104.87
2019-03-15T09:42:34.738Z,98118.28
2019-03-15T09:45:04.014Z,98101.09
2019-03-15T09:47:30.811Z,98103.20
2019-03-15T09:49:57.744Z,98102.33
2019-03-15T09:52:28.567Z,98126.56
2019-03-15T09:54:55.677Z,98105.45
2019-03-15T09:57:22.591Z,98122.88
2019-03-15T09:59:49.472Z,98115.45
2019-03-15T10:02:29.267Z,98117.51
2019-03-15T10:04:46.482Z,98113.78
2019-03-15T10:07:13.548Z,98109.57
2019-03-15T10:09:45.757Z,98116.34
2019-03-15T10:12:09.870Z,98109.22
2019-03-15T10:14:36.636Z,98144.31
2019-03-15T10:17:05.316Z,98108.91
2019-03-15T10:19:32.432Z,98118.09
2019-03-15T10:22:01.866Z,98109.83
2019-03-15T10:24:28.612Z,98124.56
2019-03-15T10:26:55.891Z,98148.52
2019-03-15T10:29:24.667Z,98114.98
2019-03-15T10:31:51.421Z,98127.85
2019-03-15T10:34:18.920Z,98126.80
2019-03-15T10:36:46.062Z,98126.72
2019-03-15T10:39:16.102Z,98120.09
2019-03-15T10:41:42.894Z,98125.56
2019-03-15T10:44:10.068Z,98133.73
2019-03-15T10:46:36.865Z,98122.55
2019-03-15T10:49:03.600Z,98129.92
2019-03-15T10:51:30.601Z,98125.67
2019-03-15T10:53:58.746Z,98125.91
2019-03-15T10:56:25.521Z,98165.78
2019-03-15T10:58:52.412Z,98143.55
2019-03-15T11:01:19.188Z,98135.66
2019-03-15T11:03:46.999Z,98151.51
2019-03-15T11:06:14.158Z,98126.17
2019-03-15T11:08:44.834Z,98139.88
2019-03-15T11:11:11.584Z,98134.59
2019-03-15T11:13:38.655Z,98131.95
2019-03-15T11:16:05.655Z,98146.98
2019-03-15T11:18:36.785Z,98150.16
2019-03-15T11:21:04.303Z,98146.20
2019-03-15T11:23:31.423Z,98148.58
2019-03-15T11:25:58.981Z,98152.22
2019-03-15T11:28:28.585Z,98156.19
2019-03-15T11:30:55.409Z,98163.05
2019-03-15T11:33:22.126Z,98141.83
2019-03-15T11:35:48.878Z,98147.12
2019-03-15T11:38:18.776Z,98143.94
2019-03-15T11:40:52.078Z,98131.20
2019-03-15T11:43:25.510Z,98144.15
2019-03-15T11:45:54.153Z,98148.32
2019-03-15T11:48:21.359Z,98141.95
2019-03-15T11:50:50.326Z,98141.95
2019-03-15T11:53:18.942Z,98146.62
2019-03-15T11:55:48.459Z,98155.61
2019-03-15T11:58:15.244Z,98178.31
2019-03-15T12:00:41.981Z,98165.63
2019-03-15T12:03:08.789Z,98166.71
2019-03-15T12:05:35.639Z,98170.15
2019-03-15T12:08:03.733Z,98160.89
2019-03-15T12:10:32.228Z,98165.03
2019-03-15T12:12:59.065Z,98185.92
2019-03-15T12:15:27.307Z,98182.45
2019-03-15T12:17:54.262Z,98176.44
2019-03-15T12:20:23.508Z,98172.53
2019-03-15T12:22:50.256Z,98189.36
2019-03-15T12:25:17.086Z,98184.63
2019-03-15T12:27:43.846Z,98177.88
2019-03-15T12:30:10.819Z,98181.78
2019-03-15T12:32:39.494Z,98182.93
2019-03-15T12:35:08.207Z,98164.66
2019-03-15T12:37:34.913Z,98184.48
2019-03-15T12:40:02.151Z,98170.11
2019-03-15T12:42:29.054Z,98173.98
2019-03-15T12:44:56.230Z,98189.80
2019-03-15T12:47:22.984Z,98179.39
2019-03-15T12:49:49.912Z,98186.09
2019-03-15T12:52:20.357Z,98204.34
2019-03-15T12:54:46.183Z,98181.56
2019-03-15T12:57:13.186Z,98207.52
2019-03-15T12:59:40.494Z,98203.17
2019-03-15T13:02:07.278Z,98196.06
2019-03-15T13:04:36.606Z,98199.70
2019-03-15T13:07:03.494Z,98200.35
2019-03-15T13:09:30.336Z,98215.95
2019-03-15T13:11:57.301Z,98173.41
2019-03-15T13:14:24.050Z,98166.00
2019-03-15T13:16:53.865Z,98197.63
2019-03-15T13:19:21.138Z,98197.00
2019-03-15T13:21:48.489Z,98221.86
2019-03-15T13:24:15.221Z,98191.95
2019-03-15T13:26:42.052Z,98192.45
2019-03-15T13:29:12.308Z,98192.09
2019-03-15T13:31:39.102Z,98213.61
2019-03-15T13:34:07.265Z,98207.14
2019-03-15T13:36:34.288Z,98224.86
2019-03-15T13:39:07.895Z,98223.19
2019-03-15T13:41:34.741Z,98203.08
2019-03-15T13:44:05.405Z,98189.95
2019-03-15T13:46:36.431Z,98203.91
2019-03-15T13:49:03.304Z,98204.99
2019-03-15T13:51:31.468Z,98158.51
2019-03-15T13:53:58.446Z,98261.78
2019-03-15T13:56:25.223Z,98234.28
2019-03-15T13:58:57.580Z,98202.53
2019-03-15T14:01:24.746Z,98197.77
2019-03-15T14:03:51.478Z,98224.45
2019-03-15T14:06:20.607Z,98209.11
2019-03-15T14:08:47.506Z,98246.05
2019-03-15T14:11:14.295Z,98241.08
2019-03-15T14:13:41.587Z,98219.05
2019-03-15T14:16:08.494Z,98199.44
2019-03-15T14:18:35.453Z,98222.69
2019-03-15T14:21:02.309Z,98205.44
2019-03-15T14:23:29.385Z,98221.83
2019-03-15T14:26:00.472Z,98195.62
2019-03-15T14:28:27.419Z,98198.46
2019-03-15T14:30:57.816Z,98197.91
2019-03-15T14:33:24.767Z,98204.98
2019-03-15T14:35:51.565Z,98227.73
2019-03-15T14:38:23.903Z,98264.48
2019-03-15T14:40:51.278Z,98203.83
2019-03-15T14:43:18.820Z,98229.27
2019-03-15T14:45:45.668Z,98216.63
2019-03-15T14:48:12.823Z,98227.73
2019-03-15T14:50:44.102Z,98239.11
2019-03-15T14:53:16.113Z,98227.23
2019-03-15T14:55:43.437Z,98244.50
2019-03-15T14:58:10.282Z,98224.19
2019-03-15T15:00:37.058Z,98225.74
2019-03-15T15:03:14.124Z,98231.33
2019-03-15T15:05:42.051Z,98232.95
2019-03-15T15:08:14.122Z,98227.98
2019-03-15T15:10:43.483Z,98235.80
2019-03-15T15:13:10.691Z,98232.45
2019-03-15T15:15:37.632Z,98230.18
2019-03-15T15:18:15.073Z,98234.97
2019-03-15T15:20:41.819Z,98274.24
2019-03-15T15:23:10.146Z,98206.84
2019-03-15T15:25:40.258Z,98234.05
2019-03-15T15:28:06.987Z,98202.55
2019-03-15T15:30:33.727Z,98201.47
2019-03-15T15:33:00.617Z,98210.48
2019-03-15T15:35:27.390Z,98236.91
2019-03-15T15:37:54.311Z,98205.38
2019-03-15T15:40:21.369Z,98219.78
2019-03-15T15:42:48.145Z,98205.99
2019-03-15T15:45:17.857Z,98215.25
2019-03-15T15:47:44.708Z,98232.70
2019-03-15T15:50:12.884Z,98240.35
2019-03-15T15:52:40.374Z,98210.17
2019-03-15T15:55:07.464Z,98219.13
2019-03-15T15:57:34.206Z,98217.80
2019-03-15T16:00:01.208Z,98237.64
2019-03-15T16:02:29.961Z,98218.04
2019-03-15T16:04:56.773Z,98219.03
2019-03-15T16:07:26.213Z,98232.09
2019-03-15T16:09:53.175Z,98255.84
2019-03-15T16:12:20.235Z,98246.38
2019-03-15T16:14:47.877Z,98236.62
2019-03-15T16:17:21.637Z,98245.97
2019-03-15T16:19:45.940Z,98243.38
2019-03-15T16:22:14.067Z,98252.42
2019-03-15T16:24:41.001Z,98238.41
2019-03-15T16:27:09.862Z,98247.19
2019-03-15T16:29:36.903Z,98231.59
2019-03-15T16:32:03.885Z,98255.13
2019-03-15T16:34:30.641Z,98214.42
2019-03-15T16:36:57.546Z,98228.50
2019-03-15T16:39:24.317Z,98232.64
2019-03-15T16:41:51.312Z,98245.07
2019-03-15T16:44:18.332Z,98231.64
2019-03-15T16:46:45.503Z,98224.50
2019-03-15T16:49:12.399Z,98222.09
2019-03-15T16:51:39.263Z,98235.79
2019-03-15T16:54:06.329Z,98245.34
2019-03-15T16:56:33.236Z,98239.52
2019-03-15T16:59:00.317Z,98226.80
2019-03-15T17:01:27.353Z,98234.67
2019-03-15T17:03:54.224Z,98243.72
2019-03-15T17:06:20.950Z,98235.26
2019-03-15T17:08:48.429Z,98247.16
2019-03-15T17:11:15.497Z,98236.29
2019-03-15T17:13:43.717Z,98246.31
2019-03-15T17:16:10.588Z,98240.55
2019-03-15T17:18:37.509Z,98237.56
2019-03-15T17:21:04.381Z,98241.52
2019-03-15T17:23:31.245Z,98249.45
2019-03-15T17:25:58.424Z,98247.13
2019-03-15T17:28:25.466Z,98268.02
2019-03-15T17:30:52.257Z,98274.00
2019-03-15T17:33:19.208Z,98254.67
2019-03-15T17:35:46.219Z,98252.05
2019-03-15T17:38:13.960Z,98251.02
2019-03-15T17:40:43.282Z,98256.81
2019-03-15T17:43:10.774Z,98286.17
2019-03-15T17:45:39.565Z,98259.72
2019-03-15T17:48:06.560Z,98248.09
2019-03-15T17:50:33.342Z,98271.36
2019-03-15T17:53:00.340Z,98269.74
2019-03-15T17:55:27.111Z,98259.96
2019-03-15T17:57:53.973Z,98247.53
2019-03-15T18:00:28.849Z,98265.83
2019-03-15T18:02:55.596Z,98260.78
2019-03-15T18:05:22.506Z,98256.81
2019-03-15T18:07:49.220Z,98281.95
2019-03-15T18:10:16.056Z,98257.11
2019-03-15T18:12:42.969Z,98264.27
2019-03-15T18:15:09.870Z,98273.55
2019-03-15T18:17:36.682Z,98271.70
2019-03-15T18:20:03.672Z,98258.58
2019-03-15T18:22:30.482Z,98269.10
2019-03-15T18:24:57.317Z,98263.81
2019-03-15T18:27:24.159Z,98294.48
2019-03-15T18:29:50.915Z,98281.80
2019-03-15T18:32:17.732Z,98281.48
2019-03-15T18:34:44.465Z,98289.46
2019-03-15T18:37:11.380Z,98297.34
2019-03-15T18:39:38.701Z,98309.29
2019-03-15T18:42:05.680Z,98297.39
2019-03-15T18:44:32.544Z,98297.92
2019-03-15T18:46:59.322Z,98293.16
2019-03-15T18:49:26.339Z,98293.16
2019-03-15T18:51:53.270Z,98331.98
2019-03-15T18:54:21.128Z,98302.70
2019-03-15T18:56:47.908Z,98320.62
2019-03-15T18:59:18.426Z,98304.84
2019-03-15T19:01:45.208Z,98312.46
2019-03-15T19:04:12.834Z,98306.93
2019-03-15T19:06:39.688Z,98315.92
2019-03-15T19:09:06.890Z,98311.35
2019-03-15T19:11:33.884Z,98310.61
2019-03-15T19:14:00.821Z,98317.48
2019-03-15T19:16:27.575Z,98314.58
2019-03-15T19:18:54.819Z,98306.98
2019-03-15T19:21:21.655Z,98313.83
2019-03-15T19:23:49.356Z,98333.13
2019-03-15T19:26:16.217Z,98321.47
2019-03-15T19:28:43.187Z,98323.08
2019-03-15T19:31:10.214Z,98324.98
2019-03-15T19:33:37.208Z,98326.56
2019-03-15T19:36:04.394Z,98334.25
2019-03-15T19:38:31.184Z,98325.04
2019-03-15T19:40:57.944Z,98348.54
2019-03-15T19:43:29.222Z,98350.09
2019-03-15T19:45:56.446Z,98359.08
2019-03-15T19:48:23.194Z,98360.11
2019-03-15T19:50:50.013Z,98368.03
2019-03-15T19:53:17.049Z,98365.72
2019-03-15T19:55:46.797Z,98360.98
2019-03-15T19:58:13.558Z,98382.09
2019-03-15T20:00:40.312Z,98371.25
2019-03-15T20:03:10.137Z,98366.52
2019-03-15T20:05:37.003Z,98379.19
2019-03-15T20:08:03.946Z,98385.61
2019-03-15T20:10:30.675Z,98374.97
2019-03-15T20:12:57.535Z,98393.98
2019-03-15T20:15:24.287Z,98385.30
2019-03-15T20:17:51.115Z,98391.89
2019-03-15T20:20:17.856Z,98387.44
2019-03-15T20:22:44.837Z,98403.30
2019-03-15T20:25:11.718Z,98403.53
2019-03-15T20:27:40.384Z,98403.30
2019-03-15T20:30:21.012Z,98391.96
2019-03-15T20:32:41.011Z,98415.51
2019-03-15T20:35:09.380Z,98398.08
2019-03-15T20:37:36.425Z,98404.16
2019-03-15T20:40:03.691Z,98402.84
2019-03-15T20:42:30.432Z,98419.22
2019-03-15T20:44:57.858Z,98416.58
2019-03-15T20:47:24.570Z,98421.86
2019-03-15T20:49:51.340Z,98448.84
2019-03-15T20:52:22.260Z,98429.55
2019-03-15T20:54:48.971Z,98426.09
2019-03-15T20:57:15.691Z,98427.48
2019-03-15T20:59:42.485Z,98430.37
2019-03-15T21:02:09.281Z,98439.10
2019-03-15T21:04:35.964Z,98429.87
2019-03-15T21:07:02.713Z,98451.30
2019-03-15T21:09:29.619Z,98455.03
2019-03-15T21:11:58.943Z,98444.97
2019-03-15T21:14:25.772Z,98459.22
2019-03-15T21:16:52.524Z,98466.84
2019-03-15T21:19:19.228Z,98473.47
2019-03-15T21:21:45.942Z,98432.28
2019-03-15T21:24:13.228Z,98462.95
2019-03-15T21:26:40.099Z,98464.78
2019-03-15T21:29:06.847Z,98476.66
2019-03-15T21:31:33.584Z,98458.16
2019-03-15T21:34:00.284Z,98452.09
2019-03-15T21:36:27.007Z,98467.66
2019-03-15T21:38:53.839Z,98476.16
2019-03-15T21:41:20.571Z,98463.47
2019-03-15T21:43:47.778Z,98472.44
2019-03-15T21:46:14.507Z,98465.31
2019-03-15T21:48:42.128Z,98477.98
2019-03-15T21:51:08.875Z,98483.27
2019-03-15T21:53:35.618Z,98483.52
2019-03-15T21:56:02.441Z,98476.39
2019-03-15T21:58:29.162Z,98457.11
2019-03-15T22:01:02.385Z,98452.63
2019-03-15T22:03:26.421Z,98439.98
2019-03-15T22:05:53.177Z,98449.75
2019-03-15T22:08:19.850Z,98450.50
2019-03-15T22:10:46.612Z,98453.20
2019-03-15T22:13:13.765Z,98453.95
2019-03-15T22:15:40.471Z,98473.77
2019-03-15T22:18:07.255Z,98456.59
2019-03-15T22:20:34.300Z,98471.92
2019-03-15T22:23:00.998Z,98455.79
2019-03-15T22:25:27.727Z,98467.20
2019-03-15T22:27:54.568Z,98476.97
2019-03-15T22:30:21.328Z,98486.23
2019-03-15T22:32:48.166Z,98478.55
2019-03-15T22:35:14.885Z,98474.06
2019-03-15T22:37:41.895Z,98465.64
2019-03-15T22:40:08.589Z,98471.20
2019-03-15T22:42:35.288Z,98480.15
2019-03-15T22:45:02.217Z,98489.67
2019-03-15T22:47:29.059Z,98495.78
2019-03-15T22:49:55.790Z,98489.69
2019-03-15T22:52:22.507Z,98476.78
2019-03-15T22:54:49.512Z,98506.62
2019-03-15T22:57:16.619Z,98493.71
2019-03-15T22:59:43.336Z,98492.89
2019-03-15T23:02:10.157Z,98502.66
2019-03-15T23:04:36.856Z,98517.44
2019-03-15T23:07:03.581Z,98501.59
2019-03-15T23:09:31.452Z,98500.02
2019-03-15T23:11:58.161Z,98512.66
2019-03-15T23:14:24.859Z,98533.83
2019-03-15T23:16:51.565Z,98509.28
2019-03-15T23:19:18.292Z,98488.39
2019-03-15T23:21:45.025Z,98503.23
2019-03-15T23:24:11.726Z,98484.20
2019-03-15T23:26:38.482Z,98493.71
2019-03-15T23:29:05.137Z,98477.08
2019-03-15T23:31:43.090Z,98498.48
2019-03-15T23:34:00.565Z,98483.16
2019-03-15T23:36:27.285Z,98480.50
2019-03-15T23:38:54.082Z,98488.43
2019-03-15T23:41:20.807Z,98494.23
2019-03-15T23:43:47.599Z,98491.32
2019-03-15T23:46:14.411Z,98516.45
2019-03-15T23:48:41.467Z,98505.59
2019-03-15T23:51:08.186Z,98486.03
2019-03-15T23:53:34.897Z,98492.13
2019-03-15T23:56:01.657Z,98502.44
2019-03-15T23:58:28.917Z,98473.62
